createdAt,value
2022-08-16T00:00:49.858Z,100362.91
2022-08-16T00:03:20.360Z,100374.22
2022-08-16T00:05:49.110Z,100370.84
2022-08-16T00:08:36.721Z,100363.28
2022-08-16T00:11:07.300Z,100368.31
2022-08-16T00:13:41.644Z,100372.78
2022-08-16T00:16:57.999Z,100379.22
2022-08-16T00:18:59.891Z,100373.41
2022-08-16T00:21:29.157Z,100382.63
2022-08-16T00:23:57.313Z,100381.75
2022-08-16T00:26:36.408Z,100374.63
2022-08-16T00:29:18.641Z,100372.72
2022-08-16T00:32:01.082Z,100390.06
2022-08-16T00:34:44.498Z,100387.59
2022-08-16T00:37:24.462Z,100405.00
2022-08-16T00:39:57.502Z,100392.31
2022-08-16T00:42:30.507Z,100394.66
2022-08-16T00:45:09.716Z,100399.09
2022-08-16T00:47:49.065Z,100393.81
2022-08-16T00:50:18.620Z,100391.91
2022-08-16T00:52:51.187Z,100395.91
2022-08-16T00:55:24.955Z,100394.53
2022-08-16T00:58:13.256Z,100396.63
2022-08-16T01:00:53.894Z,100399.72
2022-08-16T01:03:29.986Z,100405.38
2022-08-16T01:05:58.555Z,100407.47
2022-08-16T01:08:35.031Z,100399.47
2022-08-16T01:11:04.781Z,100405.38
2022-08-16T01:13:37.104Z,100400.75
2022-08-16T01:16:11.213Z,100404.53
2022-08-16T01:18:45.192Z,100406.56
2022-08-16T01:21:33.598Z,100412.88
2022-08-16T01:24:53.493Z,100414.19
2022-08-16T01:27:06.294Z,100415.16
2022-08-16T01:29:57.170Z,100417.56
2022-08-16T01:32:33.832Z,100425.06
2022-08-16T01:35:08.691Z,100421.41
2022-08-16T01:37:53.824Z,100430.63
2022-08-16T01:40:29.112Z,100427.25
2022-08-16T01:42:58.213Z,100434.47
2022-08-16T01:45:39.725Z,100429.81
2022-08-16T01:48:19.425Z,100427.59
2022-08-16T01:51:08.417Z,100432.03
2022-08-16T01:53:40.604Z,100428.16
2022-08-16T01:56:28.016Z,100427.50
2022-08-16T01:59:01.593Z,100424.41
2022-08-16T02:01:31.988Z,100417.94
2022-08-16T02:04:10.384Z,100421.06
2022-08-16T02:06:46.683Z,100432.59
2022-08-16T02:09:19.250Z,100427.91
2022-08-16T02:11:55.778Z,100432.31
2022-08-16T02:14:26.343Z,100437.13
2022-08-16T02:16:57.342Z,100442.06
2022-08-16T02:19:59.759Z,100442.50
2022-08-16T02:22:33.648Z,100443.13
2022-08-16T02:25:05.803Z,100446.38
2022-08-16T02:27:35.111Z,100441.00
2022-08-16T02:30:07.574Z,100446.84
2022-08-16T02:32:50.753Z,100448.22
2022-08-16T02:35:23.758Z,100442.44
2022-08-16T02:37:53.130Z,100448.28
2022-08-16T02:40:26.097Z,100446.19
2022-08-16T02:42:56.568Z,100447.09
2022-08-16T02:45:28.243Z,100445.44
2022-08-16T02:48:01.744Z,100448.34
2022-08-16T02:50:54.256Z,100444.88
2022-08-16T02:53:31.563Z,100440.66
2022-08-16T02:56:00.445Z,100442.91
2022-08-16T02:58:33.737Z,100447.69
2022-08-16T03:01:02.426Z,100444.97
2022-08-16T03:04:41.209Z,100448.72
2022-08-16T03:06:41.832Z,100447.59
2022-08-16T03:09:19.793Z,100450.78
2022-08-16T03:11:52.345Z,100451.25
2022-08-16T03:14:24.554Z,100455.00
2022-08-16T03:16:59.599Z,100456.25
2022-08-16T03:19:48.569Z,100461.19
2022-08-16T03:22:27.987Z,100468.31
2022-08-16T03:25:01.122Z,100462.00
2022-08-16T03:27:32.905Z,100463.69
2022-08-16T03:30:16.752Z,100461.19
2022-08-16T03:33:07.571Z,100460.19
2022-08-16T03:35:42.938Z,100451.19
2022-08-16T03:38:34.039Z,100454.66
2022-08-16T03:41:14.408Z,100462.56
2022-08-16T03:43:57.009Z,100469.41
2022-08-16T03:46:47.419Z,100469.50
2022-08-16T03:49:20.378Z,100472.88
2022-08-16T03:51:52.364Z,100470.75
2022-08-16T03:54:28.591Z,100466.41
2022-08-16T03:56:58.632Z,100467.16
2022-08-16T03:59:31.521Z,100464.94
2022-08-16T04:02:12.631Z,100463.69
2022-08-16T04:04:51.883Z,100462.59
2022-08-16T04:07:20.054Z,100467.66
2022-08-16T04:09:49.474Z,100475.81
2022-08-16T04:12:52.423Z,100477.50
2022-08-16T04:15:07.233Z,100481.25
2022-08-16T04:17:41.264Z,100481.25
2022-08-16T04:20:31.687Z,100478.44
2022-08-16T04:23:00.901Z,100489.63
2022-08-16T04:25:31.252Z,100489.25
2022-08-16T04:28:51.989Z,100488.50
2022-08-16T04:30:50.496Z,100483.06
2022-08-16T04:33:27.425Z,100478.72
2022-08-16T04:35:58.834Z,100494.34
2022-08-16T04:38:30.612Z,100486.31
2022-08-16T04:40:59.861Z,100492.03
2022-08-16T04:43:29.291Z,100496.03
2022-08-16T04:46:03.139Z,100499.00
2022-08-16T04:48:38.636Z,100497.16
2022-08-16T04:51:12.639Z,100499.13
2022-08-16T04:53:45.805Z,100499.53
2022-08-16T04:56:16.416Z,100505.34
2022-08-16T04:58:46.810Z,100503.66
2022-08-16T05:01:18.590Z,100503.06
2022-08-16T05:04:01.183Z,100508.81
2022-08-16T05:06:45.896Z,100524.75
2022-08-16T05:09:28.479Z,100510.13
2022-08-16T05:11:58.588Z,100506.63
2022-08-16T05:14:45.721Z,100516.53
2022-08-16T05:17:19.367Z,100516.22
2022-08-16T05:19:57.356Z,100514.84
2022-08-16T05:22:40.172Z,100516.63
2022-08-16T05:25:15.874Z,100523.69
2022-08-16T05:27:48.684Z,100530.81
2022-08-16T05:30:36.810Z,100532.91
2022-08-16T05:33:16.933Z,100527.47
2022-08-16T05:35:55.478Z,100529.78
2022-08-16T05:38:47.512Z,100529.63
2022-08-16T05:41:17.213Z,100519.59
2022-08-16T05:43:47.828Z,100522.75
2022-08-16T05:46:29.923Z,100526.59
2022-08-16T05:49:08.636Z,100528.75
2022-08-16T05:51:41.710Z,100525.66
2022-08-16T05:54:14.474Z,100521.25
2022-08-16T05:56:45.910Z,100526.75
2022-08-16T05:59:19.805Z,100512.34
2022-08-16T06:01:51.987Z,100524.44
2022-08-16T06:04:36.387Z,100529.31
2022-08-16T06:07:09.480Z,100532.84
2022-08-16T06:09:59.753Z,100528.94
2022-08-16T06:12:29.256Z,100541.81
2022-08-16T06:15:07.806Z,100528.72
2022-08-16T06:17:42.951Z,100535.63
2022-08-16T06:20:23.462Z,100540.66
2022-08-16T06:22:58.670Z,100530.84
2022-08-16T06:25:39.161Z,100535.88
2022-08-16T06:28:17.167Z,100552.22
2022-08-16T06:30:59.515Z,100544.94
2022-08-16T06:33:41.141Z,100552.69
2022-08-16T06:36:13.916Z,100557.53
2022-08-16T06:38:55.978Z,100561.94
2022-08-16T06:41:45.024Z,100568.69
2022-08-16T06:44:31.884Z,100571.19
2022-08-16T06:47:03.572Z,100565.38
2022-08-16T06:49:31.962Z,100569.13
2022-08-16T06:52:02.767Z,100573.13
2022-08-16T06:54:38.279Z,100578.59
2022-08-16T06:57:11.805Z,100580.44
2022-08-16T06:59:52.230Z,100580.81
2022-08-16T07:02:33.053Z,100576.19
2022-08-16T07:05:03.663Z,100568.19
2022-08-16T07:07:50.994Z,100583.53
2022-08-16T07:10:25.837Z,100583.31
2022-08-16T07:13:03.104Z,100585.84
2022-08-16T07:15:34.558Z,100576.59
2022-08-16T07:18:04.329Z,100580.59
2022-08-16T07:20:47.407Z,100572.63
2022-08-16T07:23:17.364Z,100576.81
2022-08-16T07:25:54.168Z,100586.03
2022-08-16T07:28:24.433Z,100588.19
2022-08-16T07:30:55.003Z,100586.66
2022-08-16T07:33:52.272Z,100590.69
2022-08-16T07:36:25.781Z,100592.97
2022-08-16T07:38:55.012Z,100592.34
2022-08-16T07:41:25.097Z,100597.81
2022-08-16T07:43:59.872Z,100598.63
2022-08-16T07:46:39.647Z,100601.59
2022-08-16T07:49:32.509Z,100602.84
2022-08-16T07:52:02.817Z,100602.78
2022-08-16T07:54:49.161Z,100607.00
2022-08-16T07:57:24.257Z,100621.31
2022-08-16T07:59:54.072Z,100616.25
2022-08-16T08:02:27.187Z,100606.78
2022-08-16T08:04:57.880Z,100611.19
2022-08-16T08:07:29.214Z,100601.44
2022-08-16T08:10:02.291Z,100608.44
2022-08-16T08:12:36.001Z,100598.09
2022-08-16T08:15:09.737Z,100608.63
2022-08-16T08:18:49.921Z,100613.25
2022-08-16T08:20:33.860Z,100619.81
2022-08-16T08:23:03.181Z,100611.25
2022-08-16T08:25:52.754Z,100613.97
2022-08-16T08:28:25.680Z,100631.03
2022-08-16T08:31:00.868Z,100632.88
2022-08-16T08:33:31.371Z,100625.44
2022-08-16T08:36:01.400Z,100635.50
2022-08-16T08:38:44.260Z,100626.63
2022-08-16T08:41:18.571Z,100624.13
2022-08-16T08:43:51.869Z,100630.81
2022-08-16T08:46:22.041Z,100630.16
2022-08-16T08:48:59.628Z,100636.19
2022-08-16T08:51:36.815Z,100630.84
2022-08-16T08:54:09.148Z,100636.50
2022-08-16T08:56:45.937Z,100632.06
2022-08-16T08:59:41.374Z,100636.34
2022-08-16T09:02:12.794Z,100630.75
2022-08-16T09:04:47.498Z,100636.59
2022-08-16T09:07:18.413Z,100633.31
2022-08-16T09:09:48.167Z,100629.72
2022-08-16T09:12:35.341Z,100637.84
2022-08-16T09:15:15.626Z,100639.22
2022-08-16T09:17:51.725Z,100629.53
2022-08-16T09:20:23.779Z,100621.75
2022-08-16T09:22:54.690Z,100627.13
2022-08-16T09:25:44.301Z,100620.94
2022-08-16T09:29:13.311Z,100618.66
2022-08-16T09:31:19.878Z,100620.28
2022-08-16T09:33:52.021Z,100625.09
2022-08-16T09:36:31.837Z,100625.78
2022-08-16T09:39:02.206Z,100625.31
2022-08-16T09:41:32.702Z,100620.34
2022-08-16T09:45:09.390Z,100617.38
2022-08-16T09:46:57.616Z,100618.44
2022-08-16T09:49:37.071Z,100605.00
2022-08-16T09:52:05.896Z,100602.75
2022-08-16T09:54:34.332Z,100599.88
2022-08-16T09:57:02.849Z,100600.66
2022-08-16T09:59:31.379Z,100607.00
2022-08-16T10:02:26.989Z,100604.25
2022-08-16T10:04:57.784Z,100597.25
2022-08-16T10:07:27.024Z,100600.09
2022-08-16T10:10:12.994Z,100604.53
2022-08-16T10:13:04.462Z,100601.31
2022-08-16T10:15:33.843Z,100599.81
2022-08-16T10:18:56.423Z,100602.09
2022-08-16T10:20:59.543Z,100602.47
2022-08-16T10:23:29.588Z,100587.41
2022-08-16T10:27:20.323Z,100594.59
2022-08-16T10:28:45.539Z,100596.97
2022-08-16T10:31:44.131Z,100601.25
2022-08-16T10:34:23.994Z,100594.84
2022-08-16T10:36:55.853Z,100595.03
2022-08-16T10:39:23.799Z,100596.56
2022-08-16T10:41:52.354Z,100590.75
2022-08-16T10:44:21.100Z,100601.94
2022-08-16T10:46:49.182Z,100586.09
2022-08-16T10:49:19.385Z,100596.25
2022-08-16T10:52:01.070Z,100604.22
2022-08-16T10:54:32.085Z,100591.50
2022-08-16T10:57:00.614Z,100587.13
2022-08-16T10:59:38.415Z,100596.31
2022-08-16T11:02:58.726Z,100595.56
2022-08-16T11:05:08.688Z,100589.50
2022-08-16T11:07:45.500Z,100591.16
2022-08-16T11:16:25.464Z,100596.97
2022-08-16T11:19:05.212Z,100583.13
2022-08-16T11:24:39.709Z,100577.59
2022-08-16T11:27:35.502Z,100596.72
2022-08-16T11:29:58.061Z,100591.97
2022-08-16T11:32:31.681Z,100605.69
2022-08-16T11:35:11.003Z,100594.69
2022-08-16T11:38:46.265Z,100599.75
2022-08-16T11:40:46.918Z,100589.59
2022-08-16T11:43:24.944Z,100606.50
2022-08-16T11:45:56.590Z,100601.47
2022-08-16T11:48:25.951Z,100602.94
2022-08-16T11:50:54.281Z,100608.13
2022-08-16T11:53:25.377Z,100608.03
2022-08-16T11:55:55.037Z,100594.31
2022-08-16T11:58:24.572Z,100596.97
2022-08-16T12:00:54.427Z,100602.94
2022-08-16T12:03:34.312Z,100601.09
2022-08-16T12:06:08.130Z,100598.81
2022-08-16T12:08:43.148Z,100592.66
2022-08-16T12:11:11.684Z,100594.09
2022-08-16T12:13:40.887Z,100591.88
2022-08-16T12:16:10.150Z,100590.06
2022-08-16T12:18:40.247Z,100595.25
2022-08-16T12:21:09.849Z,100596.09
2022-08-16T12:23:38.506Z,100588.09
2022-08-16T12:26:10.588Z,100587.56
2022-08-16T12:28:54.648Z,100590.31
2022-08-16T12:31:25.716Z,100589.25
2022-08-16T12:33:54.162Z,100585.06
2022-08-16T12:36:24.631Z,100580.34
2022-08-16T12:38:53.274Z,100585.91
2022-08-16T12:41:25.450Z,100596.91
2022-08-16T12:43:56.918Z,100594.38
2022-08-16T12:46:31.126Z,100591.34
2022-08-16T12:48:59.996Z,100599.75
2022-08-16T12:51:57.553Z,100600.44
2022-08-16T12:54:33.242Z,100599.50
2022-08-16T12:57:03.115Z,100594.31
2022-08-16T12:59:31.771Z,100591.25
2022-08-16T13:02:12.667Z,100581.91
2022-08-16T13:04:57.481Z,100585.31
2022-08-16T13:07:27.275Z,100577.75
2022-08-16T13:09:58.315Z,100581.84
2022-08-16T13:12:28.389Z,100575.28
2022-08-16T13:14:56.934Z,100576.13
2022-08-16T13:17:29.856Z,100578.38
2022-08-16T13:20:08.744Z,100580.16
2022-08-16T13:25:10.555Z,100571.19
2022-08-16T13:28:02.987Z,100590.16
2022-08-16T13:30:41.650Z,100585.81
2022-08-16T13:33:13.928Z,100581.31
2022-08-16T13:35:45.607Z,100588.63
2022-08-16T13:38:24.940Z,100580.81
2022-08-16T13:40:55.959Z,100591.59
2022-08-16T13:43:26.774Z,100584.03
2022-08-16T13:45:55.918Z,100591.88
2022-08-16T13:48:26.124Z,100594.63
2022-08-16T13:50:55.070Z,100584.03
2022-08-16T13:53:28.250Z,100598.59
2022-08-16T13:55:59.249Z,100591.16
2022-08-16T13:58:37.416Z,100583.88
2022-08-16T14:01:18.328Z,100584.03
2022-08-16T14:03:47.097Z,100580.22
2022-08-16T14:06:15.541Z,100584.97
2022-08-16T14:08:50.437Z,100584.00
2022-08-16T14:11:29.135Z,100588.13
2022-08-16T14:13:59.388Z,100586.84
2022-08-16T14:16:33.719Z,100579.97
2022-08-16T14:19:02.640Z,100573.19
2022-08-16T14:21:35.308Z,100572.69
2022-08-16T14:24:12.773Z,100581.84
2022-08-16T14:26:53.716Z,100590.50
2022-08-16T14:29:23.099Z,100587.22
2022-08-16T14:31:53.683Z,100576.31
2022-08-16T14:34:25.778Z,100576.47
2022-08-16T14:36:57.043Z,100587.78
2022-08-16T14:39:25.070Z,100587.78
2022-08-16T14:41:53.491Z,100582.22
2022-08-16T14:44:26.324Z,100583.69
2022-08-16T14:46:55.156Z,100574.31
2022-08-16T14:49:23.924Z,100568.31
2022-08-16T14:51:52.114Z,100584.75
2022-08-16T14:54:21.708Z,100580.09
2022-08-16T14:56:54.578Z,100581.19
2022-08-16T14:59:24.207Z,100585.63
2022-08-16T15:01:59.113Z,100569.03
2022-08-16T15:04:36.882Z,100574.75
2022-08-16T15:07:11.102Z,100579.69
2022-08-16T15:09:44.830Z,100576.63
2022-08-16T15:12:33.300Z,100578.66
2022-08-16T15:15:12.286Z,100580.25
2022-08-16T15:17:56.147Z,100578.19
2022-08-16T15:20:26.786Z,100584.38
2022-08-16T15:22:55.527Z,100584.81
2022-08-16T15:25:27.539Z,100583.38
2022-08-16T15:27:57.351Z,100580.13
2022-08-16T15:30:56.453Z,100572.06
2022-08-16T15:33:18.228Z,100581.72
2022-08-16T15:35:50.679Z,100572.06
2022-08-16T15:38:56.824Z,100579.34
2022-08-16T15:41:07.496Z,100573.09
2022-08-16T15:43:39.498Z,100573.59
2022-08-16T15:46:35.248Z,100570.88
2022-08-16T15:49:13.287Z,100570.56
2022-08-16T15:51:43.577Z,100574.69
2022-08-16T15:54:20.971Z,100570.97
2022-08-16T15:57:02.998Z,100583.59
2022-08-16T15:59:49.004Z,100573.09
2022-08-16T16:02:29.336Z,100578.03
2022-08-16T16:05:01.791Z,100575.38
2022-08-16T16:07:32.046Z,100579.78
2022-08-16T16:10:02.071Z,100587.44
2022-08-16T16:12:51.582Z,100594.66
2022-08-16T16:15:20.227Z,100590.81
2022-08-16T16:17:52.971Z,100591.25
2022-08-16T16:20:24.503Z,100586.88
2022-08-16T16:22:56.967Z,100593.75
2022-08-16T16:25:26.811Z,100579.69
2022-08-16T16:27:55.873Z,100576.28
2022-08-16T16:30:38.222Z,100587.63
2022-08-16T16:33:20.939Z,100580.84
2022-08-16T16:35:55.588Z,100588.22
2022-08-16T16:38:30.827Z,100588.16
2022-08-16T16:41:00.864Z,100590.38
2022-08-16T16:43:31.537Z,100592.59
2022-08-16T16:46:00.554Z,100594.41
2022-08-16T16:48:35.052Z,100593.66
2022-08-16T16:51:09.426Z,100601.81
2022-08-16T16:53:42.081Z,100607.84
2022-08-16T16:56:19.851Z,100601.53
2022-08-16T16:58:57.114Z,100601.00
2022-08-16T17:01:57.113Z,100610.56
2022-08-16T17:04:23.905Z,100605.81
2022-08-16T17:06:59.905Z,100605.00
2022-08-16T17:09:27.827Z,100609.31
2022-08-16T17:11:56.367Z,100613.00
2022-08-16T17:17:13.256Z,100612.91
2022-08-16T17:19:43.188Z,100611.56
2022-08-16T17:22:15.595Z,100622.72
2022-08-16T17:24:50.529Z,100613.16
2022-08-16T17:27:33.969Z,100618.97
2022-08-16T17:30:15.639Z,100623.75
2022-08-16T17:32:48.753Z,100626.16
2022-08-16T17:35:34.079Z,100630.97
2022-08-16T17:38:05.844Z,100636.13
2022-08-16T17:39:26.340Z,100618.63
2022-08-16T17:40:47.573Z,100637.50
2022-08-16T17:43:27.464Z,100636.22
2022-08-16T17:45:55.773Z,100637.31
2022-08-16T17:48:23.920Z,100639.34
2022-08-16T17:50:54.521Z,100648.69
2022-08-16T17:53:22.983Z,100652.94
2022-08-16T17:55:51.563Z,100647.00
2022-08-16T17:58:23.387Z,100652.16
2022-08-16T18:00:54.423Z,100650.97
2022-08-16T18:04:03.018Z,100652.44
2022-08-16T18:06:18.469Z,100650.59
2022-08-16T18:08:49.005Z,100654.31
2022-08-16T18:11:25.643Z,100657.34
2022-08-16T18:13:55.617Z,100652.59
2022-08-16T18:16:24.160Z,100648.88
2022-08-16T18:18:52.124Z,100662.19
2022-08-16T18:21:39.021Z,100662.91
2022-08-16T18:24:07.279Z,100664.94
2022-08-16T18:26:35.651Z,100671.66
2022-08-16T18:29:03.574Z,100675.25
2022-08-16T18:31:31.886Z,100677.78
2022-08-16T18:34:01.270Z,100677.19
2022-08-16T18:36:31.029Z,100681.16
2022-08-16T18:38:59.483Z,100677.69
2022-08-16T18:41:29.002Z,100682.94
2022-08-16T18:44:25.746Z,100684.72
2022-08-16T18:46:51.187Z,100687.22
2022-08-16T18:49:19.731Z,100688.75
2022-08-16T18:51:50.745Z,100698.59
2022-08-16T18:54:19.358Z,100693.56
2022-08-16T18:56:53.851Z,100695.81
2022-08-16T18:59:26.346Z,100707.97
2022-08-16T19:01:59.654Z,100713.81
2022-08-16T19:04:48.013Z,100717.34
2022-08-16T19:07:17.931Z,100716.59
2022-08-16T19:09:45.966Z,100720.06
2022-08-16T19:12:16.091Z,100721.59
2022-08-16T19:14:45.476Z,100721.81
2022-08-16T19:17:13.563Z,100723.22
2022-08-16T19:19:41.506Z,100723.66
2022-08-16T19:22:09.438Z,100729.41
2022-08-16T19:24:39.248Z,100732.63
2022-08-16T19:27:10.659Z,100729.03
2022-08-16T19:29:38.651Z,100731.63
2022-08-16T19:32:17.453Z,100726.84
2022-08-16T19:34:45.365Z,100729.44
2022-08-16T19:37:13.396Z,100741.94
2022-08-16T19:39:42.765Z,100743.69
2022-08-16T19:42:14.138Z,100746.13
2022-08-16T19:44:43.948Z,100745.66
2022-08-16T19:47:12.667Z,100752.53
2022-08-16T19:49:40.990Z,100750.94
2022-08-16T19:52:14.905Z,100747.75
2022-08-16T19:54:44.573Z,100750.09
2022-08-16T19:57:13.340Z,100753.28
2022-08-16T19:59:42.046Z,100750.22
2022-08-16T20:02:32.618Z,100745.13
2022-08-16T20:05:05.455Z,100748.38
2022-08-16T20:07:33.469Z,100752.03
2022-08-16T20:10:03.022Z,100749.50
2022-08-16T20:12:31.013Z,100760.56
2022-08-16T20:14:59.234Z,100761.84
2022-08-16T20:17:27.304Z,100758.88
2022-08-16T20:19:55.386Z,100764.16
2022-08-16T20:22:51.870Z,100759.59
2022-08-16T20:25:18.933Z,100762.78
2022-08-16T20:27:46.906Z,100763.66
2022-08-16T20:30:17.370Z,100766.38
2022-08-16T20:32:46.486Z,100769.94
2022-08-16T20:35:16.862Z,100775.47
2022-08-16T20:37:45.033Z,100774.47
2022-08-16T20:40:28.070Z,100775.97
2022-08-16T20:43:07.342Z,100774.56
2022-08-16T20:45:35.704Z,100776.97
2022-08-16T20:48:04.550Z,100777.41
2022-08-16T20:50:33.158Z,100781.25
2022-08-16T20:53:01.643Z,100785.00
2022-08-16T20:55:29.962Z,100772.97
2022-08-16T20:57:57.898Z,100780.34
2022-08-16T21:00:29.186Z,100779.50
2022-08-16T21:02:57.184Z,100774.09
2022-08-16T21:05:31.289Z,100779.78
2022-08-16T21:08:00.089Z,100768.19
2022-08-16T21:10:28.500Z,100773.69
2022-08-16T21:12:59.405Z,100773.69
2022-08-16T21:15:30.393Z,100777.72
2022-08-16T21:17:58.726Z,100784.75
2022-08-16T21:20:27.988Z,100771.66
2022-08-16T21:22:57.016Z,100770.63
2022-08-16T21:25:26.992Z,100769.97
2022-08-16T21:28:39.958Z,100772.94
2022-08-16T21:30:44.612Z,100782.63
2022-08-16T21:33:14.955Z,100777.59
2022-08-16T21:35:45.185Z,100773.84
2022-08-16T21:38:30.217Z,100774.06
2022-08-16T21:40:58.717Z,100773.25
2022-08-16T21:43:28.698Z,100773.69
2022-08-16T21:45:58.228Z,100778.97
2022-08-16T21:48:33.608Z,100779.19
2022-08-16T21:51:04.456Z,100771.19
2022-08-16T21:53:32.552Z,100773.31
2022-08-16T21:56:01.178Z,100780.25
2022-08-16T21:58:29.725Z,100777.94
2022-08-16T22:01:00.031Z,100788.72
2022-08-16T22:03:28.357Z,100776.06
2022-08-16T22:06:11.968Z,100779.44
2022-08-16T22:08:49.082Z,100786.81
2022-08-16T22:11:20.346Z,100786.41
2022-08-16T22:13:58.031Z,100786.22
2022-08-16T22:16:30.175Z,100791.91
2022-08-16T22:18:58.129Z,100797.38
2022-08-16T22:21:26.307Z,100795.47
2022-08-16T22:23:56.981Z,100795.06
2022-08-16T22:26:30.405Z,100802.03
2022-08-16T22:29:00.406Z,100805.19
2022-08-16T22:31:29.937Z,100814.66
2022-08-16T22:33:57.948Z,100811.53
2022-08-16T22:36:28.164Z,100811.09
2022-08-16T22:38:58.736Z,100809.41
2022-08-16T22:41:28.906Z,100813.41
2022-08-16T22:43:57.154Z,100821.63
2022-08-16T22:46:25.564Z,100835.13
2022-08-16T22:48:54.900Z,100827.53
2022-08-16T22:51:26.341Z,100820.81
2022-08-16T22:53:55.375Z,100822.06
2022-08-16T22:56:23.695Z,100824.16
2022-08-16T22:58:52.249Z,100825.88
2022-08-16T23:01:22.280Z,100813.63
2022-08-16T23:03:50.744Z,100816.59
2022-08-16T23:06:20.001Z,100820.81
2022-08-16T23:08:47.932Z,100817.84
2022-08-16T23:11:21.310Z,100817.84
2022-08-16T23:13:53.700Z,100808.38
2022-08-16T23:16:25.119Z,100813.44
2022-08-16T23:19:02.016Z,100811.50
2022-08-16T23:21:31.977Z,100812.16
2022-08-16T23:24:00.168Z,100811.50
2022-08-16T23:26:43.914Z,100813.63
2022-08-16T23:29:23.398Z,100810.44
2022-08-16T23:31:53.505Z,100810.25
2022-08-16T23:34:21.863Z,100811.31
2022-08-16T23:36:51.231Z,100806.88
2022-08-16T23:39:19.397Z,100808.13
2022-08-16T23:41:47.473Z,100806.44
2022-08-16T23:44:58.703Z,100807.72
2022-08-16T23:47:03.507Z,100805.59
2022-08-16T23:49:58.303Z,100795.91
2022-08-16T23:52:53.143Z,100791.69
2022-08-16T23:55:10.375Z,100788.75
2022-08-16T23:57:38.209Z,100799.69
